createdAt,value
2019-05-21T00:00:11.342Z,0.00
2019-05-21T00:01:11.458Z,0.00
2019-05-21T00:02:11.582Z,0.00
2019-05-21T00:03:11.834Z,0.00
2019-05-21T00:04:27.150Z,0.00
2019-05-21T00:05:13.125Z,0.00
2019-05-21T00:06:12.346Z,0.00
2019-05-21T00:07:12.483Z,0.00
2019-05-21T00:08:13.646Z,0.00
2019-05-21T00:09:12.890Z,0.00
2019-05-21T00:10:13.545Z,0.00
2019-05-21T00:11:13.170Z,0.00
2019-05-21T00:12:34.944Z,0.00
2019-05-21T00:13:14.036Z,0.00
2019-05-21T00:14:13.783Z,0.00
2019-05-21T00:15:13.946Z,0.00
2019-05-21T00:16:14.087Z,0.00
2019-05-21T00:17:14.228Z,0.00
2019-05-21T00:18:14.385Z,0.00
2019-05-21T00:19:15.029Z,0.00
2019-05-21T00:20:14.758Z,0.00
2019-05-21T00:21:14.891Z,0.00
2019-05-21T00:22:16.031Z,0.00
2019-05-21T00:23:15.284Z,0.00
2019-05-21T00:24:16.027Z,0.00
2019-05-21T00:25:17.315Z,0.00
2019-05-21T00:26:16.804Z,0.00
2019-05-21T00:27:15.926Z,0.00
2019-05-21T00:28:16.071Z,0.00
2019-05-21T00:29:16.202Z,0.00
2019-05-21T00:30:16.368Z,0.00
2019-05-21T00:31:16.587Z,0.00
2019-05-21T00:32:16.711Z,0.00
2019-05-21T00:33:16.883Z,0.00
2019-05-21T00:34:17.053Z,0.00
2019-05-21T00:35:17.274Z,0.00
2019-05-21T00:36:17.465Z,0.00
2019-05-21T00:37:17.656Z,0.00
2019-05-21T00:38:17.842Z,0.00
2019-05-21T00:39:17.990Z,0.00
2019-05-21T00:40:18.126Z,0.00
2019-05-21T00:41:18.553Z,0.00
2019-05-21T00:42:19.057Z,0.00
2019-05-21T00:43:18.690Z,0.00
2019-05-21T00:44:18.844Z,0.00
2019-05-21T00:45:19.038Z,0.00
2019-05-21T00:46:19.234Z,0.00
2019-05-21T00:47:19.426Z,0.00
2019-05-21T00:48:19.589Z,0.00
2019-05-21T00:49:19.821Z,0.00
2019-05-21T00:50:20.561Z,0.00
2019-05-21T00:51:20.262Z,0.00
2019-05-21T00:52:21.031Z,0.00
2019-05-21T00:53:20.583Z,0.00
2019-05-21T00:54:20.768Z,0.00
2019-05-21T00:55:21.599Z,0.00
2019-05-21T00:56:21.140Z,0.00
2019-05-21T00:57:22.055Z,0.00
2019-05-21T00:58:21.482Z,0.00
2019-05-21T00:59:22.573Z,0.00
2019-05-21T01:00:21.845Z,0.00
2019-05-21T01:01:22.550Z,0.00
2019-05-21T01:02:23.072Z,0.00
2019-05-21T01:03:22.354Z,0.00
2019-05-21T01:04:22.512Z,0.00
2019-05-21T01:05:22.670Z,0.00
2019-05-21T01:06:22.810Z,0.00
2019-05-21T01:07:23.005Z,0.00
2019-05-21T01:08:23.161Z,0.00
2019-05-21T01:09:24.067Z,0.00
2019-05-21T01:10:23.449Z,0.00
2019-05-21T01:11:23.610Z,0.00
2019-05-21T01:12:23.734Z,0.00
2019-05-21T01:13:23.911Z,0.00
2019-05-21T01:14:24.066Z,0.00
2019-05-21T01:15:25.047Z,0.00
2019-05-21T01:16:24.432Z,0.00
2019-05-21T01:17:24.576Z,0.00
2019-05-21T01:18:25.053Z,0.00
2019-05-21T01:19:24.938Z,0.00
2019-05-21T01:20:25.087Z,0.00
2019-05-21T01:21:25.223Z,0.00
2019-05-21T01:22:25.418Z,0.00
2019-05-21T01:23:25.594Z,0.00
2019-05-21T01:24:25.740Z,0.00
2019-05-21T01:25:25.883Z,0.00
2019-05-21T01:26:26.053Z,0.00
2019-05-21T01:27:26.270Z,0.00
2019-05-21T01:28:26.574Z,0.00
2019-05-21T01:29:26.587Z,0.00
2019-05-21T01:30:26.767Z,0.00
2019-05-21T01:31:26.918Z,0.00
2019-05-21T01:32:27.081Z,0.00
2019-05-21T01:33:27.252Z,0.00
2019-05-21T01:34:27.394Z,0.00
2019-05-21T01:35:27.553Z,0.00
2019-05-21T01:36:27.713Z,0.00
2019-05-21T01:37:27.876Z,0.00
2019-05-21T01:38:28.014Z,0.00
2019-05-21T01:39:28.259Z,0.00
2019-05-21T01:40:28.565Z,0.00
2019-05-21T01:41:28.556Z,0.00
2019-05-21T01:42:28.698Z,0.00
2019-05-21T01:43:28.841Z,0.00
2019-05-21T01:44:29.007Z,0.00
2019-05-21T01:45:29.188Z,0.00
2019-05-21T01:46:29.558Z,0.00
2019-05-21T01:47:29.525Z,0.00
2019-05-21T01:48:29.782Z,0.00
2019-05-21T01:49:30.024Z,0.00
2019-05-21T01:50:30.150Z,0.00
2019-05-21T01:51:30.573Z,0.00
2019-05-21T01:52:30.408Z,0.00
2019-05-21T01:53:30.655Z,0.00
2019-05-21T01:54:30.772Z,0.00
2019-05-21T01:55:31.577Z,0.00
2019-05-21T01:56:31.558Z,0.00
2019-05-21T01:57:31.406Z,0.00
2019-05-21T01:58:31.663Z,0.00
2019-05-21T01:59:32.570Z,0.00
2019-05-21T02:00:31.942Z,0.00
2019-05-21T02:01:32.081Z,0.00
2019-05-21T02:02:32.197Z,0.00
2019-05-21T02:03:32.428Z,0.00
2019-05-21T02:04:32.675Z,0.00
2019-05-21T02:05:33.617Z,0.00
2019-05-21T02:06:33.980Z,0.00
2019-05-21T02:07:33.195Z,0.00
2019-05-21T02:08:33.312Z,0.00
2019-05-21T02:09:33.561Z,0.00
2019-05-21T02:10:33.701Z,0.00
2019-05-21T02:11:34.069Z,0.00
2019-05-21T02:12:34.043Z,0.00
2019-05-21T02:13:34.288Z,0.00
2019-05-21T02:14:34.424Z,0.00
2019-05-21T02:15:35.062Z,0.00
2019-05-21T02:16:35.077Z,0.00
2019-05-21T02:17:34.961Z,0.00
2019-05-21T02:18:35.112Z,0.00
2019-05-21T02:19:35.263Z,0.00
2019-05-21T02:20:35.399Z,0.00
2019-05-21T02:21:35.561Z,0.00
2019-05-21T02:22:35.713Z,0.00
2019-05-21T02:23:35.840Z,0.00
2019-05-21T02:24:35.938Z,0.00
2019-05-21T02:25:37.076Z,0.00
2019-05-21T02:26:36.336Z,0.00
2019-05-21T02:27:36.480Z,0.00
2019-05-21T02:28:36.627Z,0.00
2019-05-21T02:29:36.745Z,0.00
2019-05-21T02:30:36.871Z,0.00
2019-05-21T02:31:37.013Z,0.00
2019-05-21T02:32:37.282Z,0.00
2019-05-21T02:33:37.414Z,0.00
2019-05-21T02:34:37.551Z,0.00
2019-05-21T02:35:52.733Z,0.00
2019-05-21T02:36:39.887Z,0.00
2019-05-21T02:37:38.102Z,0.00
2019-05-21T02:38:38.283Z,0.00
2019-05-21T02:39:39.067Z,0.00
2019-05-21T02:40:38.699Z,0.00
2019-05-21T02:41:38.868Z,0.00
2019-05-21T02:42:39.039Z,0.00
2019-05-21T02:43:39.211Z,0.00
2019-05-21T02:44:39.362Z,0.00
2019-05-21T02:45:39.512Z,0.00
2019-05-21T02:46:39.658Z,0.00
2019-05-21T02:47:39.839Z,0.00
2019-05-21T02:48:39.974Z,0.00
2019-05-21T02:49:40.116Z,0.00
2019-05-21T02:50:40.257Z,0.00
2019-05-21T02:51:40.405Z,0.00
2019-05-21T02:52:40.564Z,0.00
2019-05-21T02:53:40.696Z,0.00
2019-05-21T02:54:41.993Z,0.00
2019-05-21T02:55:42.141Z,0.00
2019-05-21T02:56:41.262Z,0.00
2019-05-21T02:57:41.480Z,0.00
2019-05-21T02:58:42.570Z,0.00
2019-05-21T02:59:41.863Z,0.00
2019-05-21T03:00:42.037Z,0.00
2019-05-21T03:01:42.179Z,0.00
2019-05-21T03:02:42.340Z,0.00
2019-05-21T03:03:42.496Z,0.00
2019-05-21T03:04:43.571Z,0.00
2019-05-21T03:05:43.571Z,0.00
2019-05-21T03:06:42.936Z,0.00
2019-05-21T03:07:43.053Z,0.00
2019-05-21T03:08:43.190Z,0.00
2019-05-21T03:09:44.086Z,0.00
2019-05-21T03:10:43.588Z,0.00
2019-05-21T03:11:44.584Z,0.00
2019-05-21T03:12:43.964Z,0.00
2019-05-21T03:13:44.126Z,0.00
2019-05-21T03:14:44.278Z,0.00
2019-05-21T03:15:44.420Z,0.00
2019-05-21T03:16:44.554Z,0.00
2019-05-21T03:17:44.733Z,0.00
2019-05-21T03:18:44.909Z,0.00
2019-05-21T03:19:45.623Z,0.00
2019-05-21T03:20:45.225Z,4.00
2019-05-21T03:21:45.366Z,4.00
2019-05-21T03:22:45.512Z,0.00
2019-05-21T03:23:45.637Z,0.00
2019-05-21T03:24:46.586Z,4.00
2019-05-21T03:25:45.939Z,4.00
2019-05-21T03:26:46.064Z,0.00
2019-05-21T03:27:46.181Z,0.00
2019-05-21T03:28:46.332Z,4.00
2019-05-21T03:29:46.460Z,4.00
2019-05-21T03:30:46.622Z,4.00
2019-05-21T03:31:46.763Z,0.00
2019-05-21T03:32:46.914Z,4.00
2019-05-21T03:33:47.054Z,0.00
2019-05-21T03:34:49.108Z,4.00
2019-05-21T03:35:47.596Z,4.00
2019-05-21T03:36:47.485Z,4.00
2019-05-21T03:37:47.671Z,4.00
2019-05-21T03:38:47.825Z,8.00
2019-05-21T03:39:47.963Z,8.00
2019-05-21T03:40:49.112Z,4.00
2019-05-21T03:41:49.245Z,8.00
2019-05-21T03:42:48.379Z,8.00
2019-05-21T03:43:48.547Z,8.00
2019-05-21T03:44:59.518Z,12.00
2019-05-21T03:45:50.916Z,12.00
2019-05-21T03:46:49.601Z,12.00
2019-05-21T03:47:49.369Z,12.00
2019-05-21T03:48:49.514Z,16.00
2019-05-21T03:49:49.695Z,16.00
2019-05-21T03:50:49.885Z,16.00
2019-05-21T03:51:50.098Z,16.00
2019-05-21T03:52:50.235Z,16.00
2019-05-21T03:53:50.384Z,16.00
2019-05-21T03:54:50.604Z,16.00
2019-05-21T03:55:50.786Z,16.00
2019-05-21T03:56:50.918Z,20.00
2019-05-21T03:57:52.589Z,24.00
2019-05-21T03:58:51.190Z,28.00
2019-05-21T03:59:52.099Z,32.00
2019-05-21T04:00:52.462Z,24.00
2019-05-21T04:01:51.671Z,28.00
2019-05-21T04:02:51.783Z,28.00
2019-05-21T04:03:52.017Z,32.00
2019-05-21T04:04:52.173Z,28.00
2019-05-21T04:05:53.077Z,24.00
2019-05-21T04:06:52.826Z,24.00
2019-05-21T04:07:54.584Z,24.00
2019-05-21T04:08:52.806Z,28.00
2019-05-21T04:09:52.935Z,36.00
2019-05-21T04:10:53.580Z,44.00
2019-05-21T04:11:53.611Z,40.00
2019-05-21T04:12:54.083Z,48.00
2019-05-21T04:13:53.564Z,48.00
2019-05-21T04:14:53.703Z,40.00
2019-05-21T04:15:53.943Z,36.00
2019-05-21T04:16:54.101Z,36.00
2019-05-21T04:17:54.267Z,32.00
2019-05-21T04:18:54.422Z,36.00
2019-05-21T04:19:54.549Z,32.00
2019-05-21T04:20:54.734Z,28.00
2019-05-21T04:21:54.886Z,28.00
2019-05-21T04:22:55.037Z,28.00
2019-05-21T04:23:56.085Z,20.00
2019-05-21T04:24:56.439Z,24.00
2019-05-21T04:25:56.124Z,40.00
2019-05-21T04:26:55.870Z,40.00
2019-05-21T04:27:56.024Z,40.00
2019-05-21T04:28:56.166Z,40.00
2019-05-21T04:29:56.329Z,44.00
2019-05-21T04:30:56.488Z,48.00
2019-05-21T04:31:56.629Z,60.00
2019-05-21T04:32:57.605Z,56.00
2019-05-21T04:33:57.115Z,56.00
2019-05-21T04:34:57.129Z,48.00
2019-05-21T04:35:57.257Z,44.00
2019-05-21T04:37:09.733Z,56.00
2019-05-21T04:37:59.631Z,44.00
2019-05-21T04:38:57.732Z,40.00
2019-05-21T04:39:57.860Z,44.00
2019-05-21T04:40:58.028Z,64.00
2019-05-21T04:41:58.183Z,60.00
2019-05-21T04:43:01.892Z,52.00
2019-05-21T04:43:59.518Z,48.00
2019-05-21T04:44:59.117Z,44.00
2019-05-21T04:45:58.859Z,48.00
2019-05-21T04:46:59.593Z,52.00
2019-05-21T04:48:00.111Z,48.00
2019-05-21T04:48:59.379Z,40.00
2019-05-21T04:49:59.570Z,48.00
2019-05-21T04:51:00.610Z,60.00
2019-05-21T04:51:59.838Z,64.00
2019-05-21T04:52:59.979Z,60.00
2019-05-21T04:54:00.115Z,68.00
2019-05-21T04:55:00.291Z,64.00
2019-05-21T04:56:00.461Z,72.00
2019-05-21T04:57:00.640Z,96.00
2019-05-21T04:58:01.603Z,124.00
2019-05-21T04:59:00.970Z,128.00
2019-05-21T05:00:02.123Z,116.00
2019-05-21T05:01:01.299Z,116.00
2019-05-21T05:02:01.465Z,88.00
2019-05-21T05:03:01.593Z,96.00
2019-05-21T05:04:01.735Z,92.00
2019-05-21T05:05:01.872Z,64.00
2019-05-21T05:06:02.044Z,56.00
2019-05-21T05:07:02.185Z,48.00
2019-05-21T05:08:02.358Z,68.00
2019-05-21T05:09:02.537Z,72.00
2019-05-21T05:10:02.699Z,60.00
2019-05-21T05:11:02.887Z,56.00
2019-05-21T05:12:03.073Z,40.00
2019-05-21T05:13:04.098Z,40.00
2019-05-21T05:14:03.332Z,40.00
2019-05-21T05:15:03.469Z,40.00
2019-05-21T05:16:04.435Z,48.00
2019-05-21T05:17:05.129Z,48.00
2019-05-21T05:18:03.967Z,44.00
2019-05-21T05:19:04.091Z,40.00
2019-05-21T05:20:04.245Z,40.00
2019-05-21T05:21:04.388Z,40.00
2019-05-21T05:22:05.145Z,44.00
2019-05-21T05:23:04.672Z,48.00
2019-05-21T05:24:04.801Z,52.00
2019-05-21T05:25:04.931Z,60.00
2019-05-21T05:26:05.131Z,56.00
2019-05-21T05:27:05.665Z,68.00
2019-05-21T05:28:06.109Z,80.00
2019-05-21T05:29:05.620Z,112.00
2019-05-21T05:30:05.797Z,136.00
2019-05-21T05:31:06.620Z,192.00
2019-05-21T05:32:06.159Z,200.00
2019-05-21T05:33:06.358Z,188.00
2019-05-21T05:34:07.108Z,188.00
2019-05-21T05:35:06.736Z,184.00
2019-05-21T05:36:06.894Z,252.00
2019-05-21T05:37:07.633Z,224.00
2019-05-21T05:38:07.272Z,252.00
2019-05-21T05:39:07.443Z,260.00
2019-05-21T05:40:07.586Z,312.00
2019-05-21T05:41:07.743Z,340.00
2019-05-21T05:42:07.923Z,424.00
2019-05-21T05:43:08.111Z,364.00
2019-05-21T05:44:08.251Z,356.00
2019-05-21T05:45:08.426Z,452.00
2019-05-21T05:46:08.565Z,520.00
2019-05-21T05:47:08.747Z,360.00
2019-05-21T05:48:08.918Z,348.00
2019-05-21T05:49:09.636Z,376.00
2019-05-21T05:50:09.302Z,340.00
2019-05-21T05:51:09.484Z,348.00
2019-05-21T05:52:09.639Z,364.00
2019-05-21T05:53:09.785Z,392.00
2019-05-21T05:54:09.930Z,336.00
2019-05-21T05:55:10.088Z,372.00
2019-05-21T05:56:10.245Z,400.00
2019-05-21T05:57:10.386Z,324.00
2019-05-21T05:58:10.576Z,272.00
2019-05-21T05:59:14.289Z,236.00
2019-05-21T06:00:11.932Z,232.00
2019-05-21T06:01:11.062Z,208.00
2019-05-21T06:02:11.227Z,184.00
2019-05-21T06:03:11.394Z,152.00
2019-05-21T06:04:11.583Z,152.00
2019-05-21T06:05:11.744Z,168.00
2019-05-21T06:06:11.878Z,160.00
2019-05-21T06:07:12.617Z,120.00
2019-05-21T06:08:12.189Z,92.00
2019-05-21T06:09:12.344Z,112.00
2019-05-21T06:10:12.518Z,132.00
2019-05-21T06:11:12.680Z,144.00
2019-05-21T06:12:12.842Z,136.00
2019-05-21T06:13:12.994Z,132.00
2019-05-21T06:14:13.147Z,124.00
2019-05-21T06:15:14.132Z,120.00
2019-05-21T06:16:13.515Z,84.00
2019-05-21T06:17:13.679Z,76.00
2019-05-21T06:18:13.845Z,80.00
2019-05-21T06:19:14.037Z,88.00
2019-05-21T06:20:14.154Z,96.00
2019-05-21T06:21:14.295Z,104.00
2019-05-21T06:22:14.431Z,104.00
2019-05-21T06:23:15.123Z,108.00
2019-05-21T06:24:14.801Z,120.00
2019-05-21T06:25:14.963Z,124.00
2019-05-21T06:26:15.117Z,128.00
2019-05-21T06:27:15.250Z,144.00
2019-05-21T06:28:15.397Z,168.00
2019-05-21T06:29:15.572Z,184.00
2019-05-21T06:30:15.743Z,200.00
2019-05-21T06:31:15.895Z,220.00
2019-05-21T06:32:16.042Z,248.00
2019-05-21T06:33:17.199Z,304.00
2019-05-21T06:34:17.123Z,340.00
2019-05-21T06:35:16.497Z,280.00
2019-05-21T06:36:17.625Z,228.00
2019-05-21T06:37:16.882Z,220.00
2019-05-21T06:38:18.365Z,236.00
2019-05-21T06:39:19.126Z,248.00
2019-05-21T06:40:17.631Z,284.00
2019-05-21T06:41:17.512Z,300.00
2019-05-21T06:42:17.643Z,324.00
2019-05-21T06:43:17.817Z,332.00
2019-05-21T06:44:17.984Z,392.00
2019-05-21T06:45:18.118Z,496.00
2019-05-21T06:46:18.255Z,580.00
2019-05-21T06:47:18.383Z,428.00
2019-05-21T06:48:18.504Z,460.00
2019-05-21T06:49:18.704Z,364.00
2019-05-21T06:50:18.912Z,288.00
2019-05-21T06:51:19.126Z,348.00
2019-05-21T06:52:19.316Z,408.00
2019-05-21T06:53:19.455Z,352.00
2019-05-21T06:54:19.591Z,336.00
2019-05-21T06:55:20.136Z,304.00
2019-05-21T06:56:19.917Z,244.00
2019-05-21T06:57:20.030Z,264.00
2019-05-21T06:58:21.192Z,280.00
2019-05-21T06:59:20.322Z,292.00
2019-05-21T07:00:20.464Z,288.00
2019-05-21T07:01:27.646Z,208.00
2019-05-21T07:02:23.140Z,200.00
2019-05-21T07:03:20.829Z,200.00
2019-05-21T07:04:21.013Z,172.00
2019-05-21T07:05:21.171Z,192.00
2019-05-21T07:06:22.140Z,216.00
2019-05-21T07:07:21.533Z,216.00
2019-05-21T07:08:34.042Z,172.00
2019-05-21T07:09:23.839Z,200.00
2019-05-21T07:10:22.075Z,256.00
2019-05-21T07:11:22.200Z,256.00
2019-05-21T07:12:22.404Z,288.00
2019-05-21T07:13:22.450Z,264.00
2019-05-21T07:14:22.609Z,216.00
2019-05-21T07:15:23.643Z,208.00
2019-05-21T07:16:22.881Z,272.00
2019-05-21T07:17:23.057Z,240.00
2019-05-21T07:18:23.189Z,220.00
2019-05-21T07:19:23.353Z,368.00
2019-05-21T07:20:23.505Z,508.00
2019-05-21T07:21:24.635Z,348.00
2019-05-21T07:22:23.871Z,288.00
2019-05-21T07:23:24.062Z,284.00
2019-05-21T07:24:28.072Z,284.00
2019-05-21T07:25:24.390Z,276.00
2019-05-21T07:26:24.591Z,312.00
2019-05-21T07:27:24.793Z,420.00
2019-05-21T07:28:24.962Z,420.00
2019-05-21T07:29:25.117Z,476.00
2019-05-21T07:30:25.275Z,528.00
2019-05-21T07:31:25.409Z,560.00
2019-05-21T07:32:25.579Z,500.00
2019-05-21T07:33:26.150Z,616.00
2019-05-21T07:34:25.900Z,676.00
2019-05-21T07:35:26.051Z,628.00
2019-05-21T07:36:26.188Z,596.00
2019-05-21T07:37:26.345Z,416.00
2019-05-21T07:38:26.536Z,376.00
2019-05-21T07:39:26.689Z,440.00
2019-05-21T07:40:26.862Z,556.00
2019-05-21T07:41:27.011Z,404.00
2019-05-21T07:42:27.189Z,296.00
2019-05-21T07:43:27.663Z,180.00
2019-05-21T07:44:27.572Z,268.00
2019-05-21T07:45:28.157Z,380.00
2019-05-21T07:46:27.919Z,292.00
2019-05-21T07:47:28.065Z,220.00
2019-05-21T07:48:28.193Z,220.00
2019-05-21T07:49:28.362Z,272.00
2019-05-21T07:50:28.493Z,336.00
2019-05-21T07:51:28.627Z,432.00
2019-05-21T07:52:28.752Z,480.00
2019-05-21T07:53:28.999Z,508.00
2019-05-21T07:54:29.675Z,552.00
2019-05-21T07:55:29.303Z,476.00
2019-05-21T07:56:30.139Z,352.00
2019-05-21T07:57:29.647Z,432.00
2019-05-21T07:58:29.809Z,608.00
2019-05-21T07:59:29.974Z,588.00
2019-05-21T08:00:30.134Z,496.00
2019-05-21T08:01:30.258Z,508.00
2019-05-21T08:02:30.419Z,588.00
2019-05-21T08:03:30.598Z,564.00
2019-05-21T08:04:31.164Z,376.00
2019-05-21T08:05:30.919Z,328.00
2019-05-21T08:06:31.067Z,356.00
2019-05-21T08:07:32.149Z,432.00
2019-05-21T08:08:31.418Z,420.00
2019-05-21T08:09:31.594Z,552.00
2019-05-21T08:10:31.779Z,628.00
2019-05-21T08:11:32.650Z,652.00
2019-05-21T08:12:39.037Z,724.00
2019-05-21T08:13:34.388Z,816.00
2019-05-21T08:14:32.585Z,916.00
2019-05-21T08:15:32.772Z,920.00
2019-05-21T08:16:33.169Z,796.00
2019-05-21T08:17:33.063Z,812.00
2019-05-21T08:18:33.224Z,736.00
2019-05-21T08:19:33.369Z,592.00
2019-05-21T08:20:34.159Z,608.00
2019-05-21T08:21:34.164Z,692.00
2019-05-21T08:22:34.818Z,824.00
2019-05-21T08:23:34.068Z,792.00
2019-05-21T08:24:34.222Z,780.00
2019-05-21T08:25:35.157Z,856.00
2019-05-21T08:26:34.656Z,880.00
2019-05-21T08:27:34.698Z,972.00
2019-05-21T08:28:35.667Z,1052.00
2019-05-21T08:29:35.047Z,1024.00
2019-05-21T08:31:08.598Z,948.00
2019-05-21T08:31:35.339Z,792.00
2019-05-21T08:32:36.166Z,628.00
2019-05-21T08:33:35.646Z,600.00
2019-05-21T08:34:35.790Z,604.00
2019-05-21T08:35:35.908Z,632.00
2019-05-21T08:36:36.078Z,608.00
2019-05-21T08:37:36.220Z,688.00
2019-05-21T08:38:36.368Z,736.00
2019-05-21T08:39:36.517Z,716.00
2019-05-21T08:40:36.691Z,540.00
2019-05-21T08:41:36.877Z,548.00
2019-05-21T08:42:37.038Z,600.00
2019-05-21T08:43:37.177Z,616.00
2019-05-21T08:44:37.332Z,540.00
2019-05-21T08:45:37.480Z,464.00
2019-05-21T08:46:37.665Z,472.00
2019-05-21T08:47:37.855Z,508.00
2019-05-21T08:48:38.021Z,496.00
2019-05-21T08:49:38.170Z,448.00
2019-05-21T08:50:38.337Z,464.00
2019-05-21T08:51:38.619Z,468.00
2019-05-21T08:52:38.780Z,500.00
2019-05-21T08:53:38.956Z,548.00
2019-05-21T08:54:39.100Z,664.00
2019-05-21T08:55:40.168Z,640.00
2019-05-21T08:56:39.732Z,668.00
2019-05-21T08:57:39.624Z,636.00
2019-05-21T08:58:39.765Z,692.00
2019-05-21T08:59:39.928Z,696.00
2019-05-21T09:00:40.098Z,664.00
2019-05-21T09:01:40.251Z,524.00
2019-05-21T09:02:40.429Z,576.00
2019-05-21T09:03:40.594Z,664.00
2019-05-21T09:04:46.480Z,604.00
2019-05-21T09:05:42.979Z,628.00
2019-05-21T09:06:41.224Z,692.00
2019-05-21T09:07:41.406Z,656.00
2019-05-21T09:08:41.551Z,764.00
2019-05-21T09:09:50.270Z,812.00
2019-05-21T09:10:43.796Z,824.00
2019-05-21T09:11:42.016Z,840.00
2019-05-21T09:12:42.164Z,828.00
2019-05-21T09:13:43.173Z,868.00
2019-05-21T09:14:42.412Z,820.00
2019-05-21T09:15:42.568Z,704.00
2019-05-21T09:16:42.707Z,648.00
2019-05-21T09:17:42.852Z,628.00
2019-05-21T09:18:43.749Z,692.00
2019-05-21T09:19:43.165Z,696.00
2019-05-21T09:20:43.299Z,704.00
2019-05-21T09:21:43.443Z,700.00
2019-05-21T09:22:43.599Z,716.00
2019-05-21T09:23:43.725Z,708.00
2019-05-21T09:24:44.002Z,816.00
2019-05-21T09:25:44.681Z,712.00
2019-05-21T09:26:44.298Z,680.00
2019-05-21T09:27:44.410Z,808.00
2019-05-21T09:28:44.528Z,804.00
2019-05-21T09:29:44.800Z,936.00
2019-05-21T09:30:44.947Z,1008.00
2019-05-21T09:31:45.680Z,792.00
2019-05-21T09:32:46.184Z,752.00
2019-05-21T09:33:45.528Z,824.00
2019-05-21T09:34:49.267Z,828.00
2019-05-21T09:35:46.860Z,732.00
2019-05-21T09:36:46.092Z,812.00
2019-05-21T09:37:46.212Z,784.00
2019-05-21T09:38:47.717Z,724.00
2019-05-21T09:39:46.565Z,664.00
2019-05-21T09:40:46.714Z,700.00
2019-05-21T09:41:46.862Z,648.00
2019-05-21T09:42:47.686Z,688.00
2019-05-21T09:43:47.713Z,692.00
2019-05-21T09:44:47.332Z,632.00
2019-05-21T09:45:47.480Z,624.00
2019-05-21T09:46:47.616Z,596.00
2019-05-21T09:47:47.857Z,588.00
2019-05-21T09:48:48.038Z,604.00
2019-05-21T09:49:48.758Z,660.00
2019-05-21T09:50:48.403Z,648.00
2019-05-21T09:51:48.518Z,624.00
2019-05-21T09:52:48.675Z,620.00
2019-05-21T09:53:48.820Z,580.00
2019-05-21T09:54:48.974Z,628.00
2019-05-21T09:55:49.093Z,608.00
2019-05-21T09:56:49.234Z,588.00
2019-05-21T09:57:49.384Z,548.00
2019-05-21T09:58:49.549Z,564.00
2019-05-21T09:59:49.677Z,540.00
2019-05-21T10:00:50.701Z,556.00
2019-05-21T10:01:49.948Z,612.00
2019-05-21T10:02:51.097Z,620.00
2019-05-21T10:03:50.346Z,560.00
2019-05-21T10:04:50.504Z,564.00
2019-05-21T10:05:51.201Z,568.00
2019-05-21T10:06:51.195Z,604.00
2019-05-21T10:07:50.938Z,544.00
2019-05-21T10:08:51.687Z,472.00
2019-05-21T10:09:51.315Z,464.00
2019-05-21T10:10:51.525Z,440.00
2019-05-21T10:11:51.585Z,432.00
2019-05-21T10:12:51.767Z,428.00
2019-05-21T10:13:51.929Z,428.00
2019-05-21T10:14:52.692Z,452.00
2019-05-21T10:15:52.237Z,440.00
2019-05-21T10:16:52.438Z,436.00
2019-05-21T10:17:52.713Z,404.00
2019-05-21T10:18:52.746Z,396.00
2019-05-21T10:19:52.880Z,408.00
2019-05-21T10:20:53.681Z,408.00
2019-05-21T10:21:56.802Z,408.00
2019-05-21T10:22:53.367Z,416.00
2019-05-21T10:23:53.522Z,456.00
2019-05-21T10:24:54.214Z,516.00
2019-05-21T10:25:53.864Z,544.00
2019-05-21T10:26:54.003Z,584.00
2019-05-21T10:27:54.173Z,660.00
2019-05-21T10:28:54.326Z,752.00
2019-05-21T10:29:54.484Z,796.00
2019-05-21T10:30:54.616Z,800.00
2019-05-21T10:31:54.781Z,804.00
2019-05-21T10:32:54.966Z,804.00
2019-05-21T10:33:55.107Z,768.00
2019-05-21T10:34:56.205Z,744.00
2019-05-21T10:35:55.476Z,700.00
2019-05-21T10:36:55.627Z,692.00
2019-05-21T10:37:55.803Z,676.00
2019-05-21T10:38:55.983Z,684.00
2019-05-21T10:39:56.155Z,704.00
2019-05-21T10:40:56.320Z,696.00
2019-05-21T10:41:57.199Z,588.00
2019-05-21T10:42:56.729Z,600.00
2019-05-21T10:43:56.887Z,556.00
2019-05-21T10:44:57.057Z,520.00
2019-05-21T10:45:57.171Z,532.00
2019-05-21T10:46:57.315Z,552.00
2019-05-21T10:47:57.472Z,568.00
2019-05-21T10:48:57.653Z,592.00
2019-05-21T10:49:58.705Z,616.00
2019-05-21T10:50:57.959Z,632.00
2019-05-21T10:51:58.119Z,632.00
2019-05-21T10:52:58.287Z,652.00
2019-05-21T10:53:58.534Z,668.00
2019-05-21T10:54:58.621Z,692.00
2019-05-21T10:55:58.774Z,660.00
2019-05-21T10:56:58.962Z,624.00
2019-05-21T10:57:59.113Z,632.00
2019-05-21T10:58:59.283Z,624.00
2019-05-21T10:59:59.447Z,616.00
2019-05-21T11:00:59.567Z,596.00
2019-05-21T11:01:59.687Z,584.00
2019-05-21T11:02:59.836Z,572.00
2019-05-21T11:04:00.022Z,560.00
2019-05-21T11:05:00.163Z,556.00
2019-05-21T11:06:09.726Z,592.00
2019-05-21T11:07:02.504Z,556.00
2019-05-21T11:08:22.297Z,576.00
2019-05-21T11:09:02.902Z,556.00
2019-05-21T11:10:01.085Z,568.00
2019-05-21T11:11:01.238Z,564.00
2019-05-21T11:12:01.332Z,572.00
2019-05-21T11:13:02.216Z,556.00
2019-05-21T11:14:01.847Z,548.00
2019-05-21T11:15:01.973Z,520.00
2019-05-21T11:16:02.116Z,524.00
2019-05-21T11:17:02.241Z,516.00
2019-05-21T11:18:10.432Z,552.00
2019-05-21T11:19:04.616Z,572.00
2019-05-21T11:20:02.712Z,568.00
2019-05-21T11:21:02.830Z,556.00
2019-05-21T11:22:03.080Z,572.00
2019-05-21T11:23:03.212Z,560.00
2019-05-21T11:24:03.476Z,560.00
2019-05-21T11:25:03.528Z,592.00
2019-05-21T11:26:05.581Z,576.00
2019-05-21T11:27:04.822Z,704.00
2019-05-21T11:28:06.224Z,744.00
2019-05-21T11:29:05.211Z,612.00
2019-05-21T11:30:04.325Z,624.00
2019-05-21T11:31:04.467Z,676.00
2019-05-21T11:32:04.584Z,612.00
2019-05-21T11:33:04.732Z,620.00
2019-05-21T11:34:04.884Z,580.00
2019-05-21T11:35:05.722Z,604.00
2019-05-21T11:36:05.281Z,612.00
2019-05-21T11:37:05.437Z,596.00
2019-05-21T11:38:06.620Z,672.00
2019-05-21T11:39:05.745Z,644.00
2019-05-21T11:40:08.532Z,696.00
2019-05-21T11:41:06.729Z,716.00
2019-05-21T11:42:06.351Z,692.00
2019-05-21T11:43:06.473Z,644.00
2019-05-21T11:44:06.618Z,660.00
2019-05-21T11:45:06.795Z,604.00
2019-05-21T11:46:06.939Z,552.00
2019-05-21T11:47:08.083Z,576.00
2019-05-21T11:48:07.725Z,576.00
2019-05-21T11:49:07.461Z,636.00
2019-05-21T11:50:07.689Z,620.00
2019-05-21T11:51:07.862Z,660.00
2019-05-21T11:52:07.987Z,704.00
2019-05-21T11:53:08.729Z,896.00
2019-05-21T11:54:08.340Z,788.00
2019-05-21T11:55:08.506Z,736.00
2019-05-21T11:56:08.648Z,744.00
2019-05-21T11:57:08.772Z,684.00
2019-05-21T11:58:08.912Z,664.00
2019-05-21T11:59:09.063Z,660.00
2019-05-21T12:00:09.225Z,664.00
2019-05-21T12:01:09.374Z,620.00
2019-05-21T12:02:09.503Z,568.00
2019-05-21T12:03:10.642Z,584.00
2019-05-21T12:04:09.840Z,580.00
2019-05-21T12:05:10.736Z,584.00
2019-05-21T12:06:10.862Z,528.00
2019-05-21T12:07:10.370Z,528.00
2019-05-21T12:08:10.560Z,512.00
2019-05-21T12:09:10.714Z,532.00
2019-05-21T12:10:10.862Z,460.00
2019-05-21T12:11:11.044Z,456.00
2019-05-21T12:12:11.218Z,432.00
2019-05-21T12:13:11.752Z,400.00
2019-05-21T12:14:12.219Z,420.00
2019-05-21T12:15:11.796Z,432.00
2019-05-21T12:16:11.966Z,400.00
2019-05-21T12:17:12.196Z,396.00
2019-05-21T12:18:12.255Z,440.00
2019-05-21T12:19:12.442Z,436.00
2019-05-21T12:20:12.646Z,472.00
2019-05-21T12:21:12.844Z,508.00
2019-05-21T12:22:13.724Z,532.00
2019-05-21T12:23:13.154Z,464.00
2019-05-21T12:24:13.322Z,460.00
2019-05-21T12:25:14.218Z,512.00
2019-05-21T12:26:13.624Z,488.00
2019-05-21T12:27:13.805Z,472.00
2019-05-21T12:28:14.034Z,432.00
2019-05-21T12:29:14.229Z,440.00
2019-05-21T12:30:14.406Z,468.00
2019-05-21T12:31:14.567Z,452.00
2019-05-21T12:32:14.706Z,396.00
2019-05-21T12:33:14.856Z,380.00
2019-05-21T12:34:15.022Z,392.00
2019-05-21T12:35:15.251Z,388.00
2019-05-21T12:36:15.298Z,432.00
2019-05-21T12:37:15.462Z,468.00
2019-05-21T12:38:16.241Z,452.00
2019-05-21T12:39:15.875Z,488.00
2019-05-21T12:40:16.015Z,472.00
2019-05-21T12:41:16.142Z,436.00
2019-05-21T12:42:17.237Z,452.00
2019-05-21T12:43:16.456Z,476.00
2019-05-21T12:44:16.589Z,436.00
2019-05-21T12:45:16.699Z,472.00
2019-05-21T12:46:17.256Z,512.00
2019-05-21T12:47:17.790Z,496.00